KVPZ/VPZ METAR and TAF weather

Enter ICAO airport designator
Station Type Date Time Source
KVPZ METAR 2020/09/18 21:56 UTC NOAA

KVPZ 182156Z AUTO 36006KT 10SM CLR 15/02 A3032 RMK AO2 SLP269 T01500022 $


Station Type Date Time Source
KVPZ Decoded METAR 2020/09/18 21:56 UTC NOAA

VALPARAISO PORTER CO MUNI, IN, United States (KVPZ) 41-27N 087-00W 231M
Sep 18, 2020 - 05:56 PM EDT / 2020.09.18 2156 UTC
Wind: from the N (360 degrees) at 7 MPH (6 KT):0
Visibility: 10 mile(s):0
Sky conditions: clear
Temperature: 59.0 F (15.0 C)
Dew Point: 36.0 F (2.2 C)
Relative Humidity: 41%
Pressure (altimeter): 30.32 in. Hg (1026 hPa)
ob: KVPZ 182156Z AUTO 36006KT 10SM CLR 15/02 A3032 RMK AO2 SLP269 T01500022
cycle: 22

Station Type Date Time Source
KVPZ TAF UTC NOAA

Error!

Example: see airport list